createdAt,value
2019-04-27T00:00:17.501Z,16.50
2019-04-27T00:03:05.846Z,16.60
2019-04-27T00:05:45.985Z,16.50
2019-04-27T00:08:39.123Z,16.50
2019-04-27T00:11:26.035Z,16.50
2019-04-27T00:13:56.819Z,16.40
2019-04-27T00:16:33.736Z,16.40
2019-04-27T00:19:14.941Z,16.40
2019-04-27T00:21:47.085Z,16.40
2019-04-27T00:24:17.643Z,16.40
2019-04-27T00:26:48.252Z,16.30
2019-04-27T00:29:19.429Z,16.20
2019-04-27T00:31:50.059Z,16.20
2019-04-27T00:34:20.792Z,16.10
2019-04-27T00:37:07.990Z,16.10
2019-04-27T00:39:43.363Z,16.10
2019-04-27T00:42:13.935Z,16.10
2019-04-27T00:44:45.299Z,16.30
2019-04-27T00:47:15.936Z,16.10
2019-04-27T00:49:47.552Z,16.10
2019-04-27T00:52:18.126Z,16.10
2019-04-27T00:54:48.673Z,16.00
2019-04-27T00:57:20.996Z,15.90
2019-04-27T00:59:53.170Z,15.90
2019-04-27T01:02:28.120Z,15.90
2019-04-27T01:04:58.685Z,15.80
2019-04-27T01:07:29.390Z,15.70
2019-04-27T01:10:00.022Z,15.70
2019-04-27T01:12:30.547Z,15.60
2019-04-27T01:15:01.107Z,15.50
2019-04-27T01:17:31.809Z,15.40
2019-04-27T01:20:02.399Z,15.40
2019-04-27T01:22:32.994Z,15.40
2019-04-27T01:25:04.772Z,15.30
2019-04-27T01:27:49.431Z,15.30
2019-04-27T01:30:28.921Z,15.20
2019-04-27T01:32:59.606Z,15.10
2019-04-27T01:35:30.323Z,15.10
2019-04-27T01:38:00.927Z,15.10
2019-04-27T01:40:31.495Z,15.00
2019-04-27T01:43:02.132Z,14.90
2019-04-27T01:45:33.512Z,15.00
2019-04-27T01:48:04.677Z,14.80
2019-04-27T01:50:35.302Z,14.70
2019-04-27T01:53:05.975Z,14.70
2019-04-27T01:55:36.529Z,14.70
2019-04-27T01:58:08.817Z,14.70
2019-04-27T02:00:53.493Z,14.70
2019-04-27T02:03:42.306Z,14.70
2019-04-27T02:06:13.115Z,14.60
2019-04-27T02:08:43.783Z,14.50
2019-04-27T02:11:14.470Z,14.60
2019-04-27T02:13:45.094Z,14.50
2019-04-27T02:16:16.119Z,14.40
2019-04-27T02:18:46.718Z,14.40
2019-04-27T02:21:18.847Z,14.40
2019-04-27T02:23:49.766Z,14.40
2019-04-27T02:26:21.533Z,14.30
2019-04-27T02:29:03.149Z,14.30
2019-04-27T02:31:41.510Z,14.20
2019-04-27T02:34:16.292Z,14.20
2019-04-27T02:36:46.999Z,14.20
2019-04-27T02:39:19.778Z,14.20
2019-04-27T02:41:51.888Z,14.20
2019-04-27T02:44:26.920Z,14.20
2019-04-27T02:47:00.370Z,14.10
2019-04-27T02:49:30.779Z,14.10
2019-04-27T02:52:19.987Z,14.10
2019-04-27T02:54:50.840Z,14.10
2019-04-27T02:57:21.552Z,14.10
2019-04-27T02:59:52.077Z,14.10
2019-04-27T03:02:25.474Z,14.10
2019-04-27T03:04:56.072Z,14.00
2019-04-27T03:07:26.647Z,14.00
2019-04-27T03:09:59.643Z,14.00
2019-04-27T03:12:31.091Z,14.00
2019-04-27T03:15:03.432Z,14.00
2019-04-27T03:17:41.613Z,14.00
2019-04-27T03:20:34.850Z,13.90
2019-04-27T03:23:09.525Z,13.90
2019-04-27T03:25:47.102Z,13.90
2019-04-27T03:28:20.038Z,13.80
2019-04-27T03:30:52.162Z,13.70
2019-04-27T03:33:22.963Z,13.70
2019-04-27T03:35:53.647Z,13.60
2019-04-27T03:38:24.255Z,13.60
2019-04-27T03:40:54.846Z,13.60
2019-04-27T03:43:25.479Z,13.60
2019-04-27T03:45:56.038Z,13.60
2019-04-27T03:48:29.427Z,13.50
2019-04-27T03:51:09.908Z,13.40
2019-04-27T03:53:41.824Z,13.40
2019-04-27T03:56:21.341Z,13.50
2019-04-27T03:58:54.585Z,13.40
2019-04-27T04:01:25.180Z,13.40
2019-04-27T04:03:55.831Z,13.10
2019-04-27T04:06:26.406Z,13.30
2019-04-27T04:08:57.109Z,13.30
2019-04-27T04:11:32.153Z,13.30
2019-04-27T04:14:07.217Z,13.30
2019-04-27T04:16:45.126Z,13.20
2019-04-27T04:19:23.156Z,13.20
2019-04-27T04:21:53.559Z,13.20
2019-04-27T04:24:28.160Z,13.20
2019-04-27T04:26:56.263Z,13.20
2019-04-27T04:29:26.683Z,13.20
2019-04-27T04:31:57.153Z,13.20
2019-04-27T04:34:29.844Z,13.10
2019-04-27T04:37:00.986Z,13.00
2019-04-27T04:39:31.621Z,13.00
2019-04-27T04:42:15.500Z,13.00
2019-04-27T04:44:53.656Z,12.90
2019-04-27T04:47:40.758Z,12.90
2019-04-27T04:50:15.183Z,12.90
2019-04-27T04:52:45.950Z,12.90
2019-04-27T04:57:52.257Z,12.90
2019-04-27T05:00:23.008Z,12.80
2019-04-27T05:02:53.525Z,12.80
2019-04-27T05:05:27.112Z,12.90
2019-04-27T05:07:58.756Z,12.80
2019-04-27T05:10:31.291Z,12.60
2019-04-27T05:13:01.913Z,12.80
2019-04-27T05:15:33.760Z,12.80
2019-04-27T05:18:04.614Z,12.80
2019-04-27T05:20:42.758Z,12.90
2019-04-27T05:23:14.775Z,12.90
2019-04-27T05:25:45.343Z,12.90
2019-04-27T05:28:15.888Z,12.90
2019-04-27T05:30:46.580Z,13.00
2019-04-27T05:33:18.713Z,13.00
2019-04-27T05:35:49.531Z,13.00
2019-04-27T05:38:20.241Z,13.00
2019-04-27T05:40:50.848Z,13.00
2019-04-27T05:43:29.621Z,13.00
2019-04-27T05:46:13.569Z,13.10
2019-04-27T05:48:44.697Z,12.90
2019-04-27T05:51:16.093Z,13.00
2019-04-27T05:53:46.669Z,13.00
2019-04-27T05:56:19.313Z,13.00
2019-04-27T05:58:51.263Z,13.00
2019-04-27T06:01:22.075Z,13.00
2019-04-27T06:03:52.686Z,13.00
2019-04-27T06:06:23.171Z,13.00
2019-04-27T06:08:54.089Z,13.10
2019-04-27T06:11:26.504Z,13.10
2019-04-27T06:14:06.092Z,13.10
2019-04-27T06:16:36.681Z,13.10
2019-04-27T06:19:07.081Z,13.10
2019-04-27T06:21:40.257Z,13.10
2019-04-27T06:24:10.925Z,13.30
2019-04-27T06:26:41.484Z,13.40
2019-04-27T06:29:12.098Z,13.60
2019-04-27T06:31:45.892Z,13.70
2019-04-27T06:34:16.395Z,13.80
2019-04-27T06:36:48.596Z,13.90
2019-04-27T06:39:20.531Z,14.00
2019-04-27T06:41:51.618Z,14.10
2019-04-27T06:44:22.083Z,14.10
2019-04-27T06:46:53.573Z,14.20
2019-04-27T06:49:23.966Z,14.20
2019-04-27T06:51:55.445Z,14.20
2019-04-27T06:54:28.681Z,14.10
2019-04-27T06:56:59.374Z,14.20
2019-04-27T06:59:31.651Z,14.20
2019-04-27T07:02:02.445Z,14.20
2019-04-27T07:04:32.833Z,14.30
2019-04-27T07:07:04.357Z,14.30
2019-04-27T07:09:34.851Z,14.40
2019-04-27T07:12:05.407Z,14.40
2019-04-27T07:14:35.879Z,14.50
2019-04-27T07:17:06.382Z,14.60
2019-04-27T07:19:39.695Z,14.60
2019-04-27T07:22:11.428Z,14.70
2019-04-27T07:24:42.212Z,14.70
2019-04-27T07:27:13.458Z,14.70
2019-04-27T07:29:44.820Z,14.80
2019-04-27T07:32:16.456Z,14.80
2019-04-27T07:34:49.672Z,14.90
2019-04-27T07:37:20.305Z,14.90
2019-04-27T07:39:51.071Z,14.80
2019-04-27T07:42:23.772Z,14.90
2019-04-27T07:44:55.976Z,14.90
2019-04-27T07:47:29.397Z,15.00
2019-04-27T07:50:01.368Z,15.00
2019-04-27T07:52:33.232Z,15.00
2019-04-27T07:55:04.151Z,15.10
2019-04-27T07:57:34.579Z,15.00
2019-04-27T08:00:09.379Z,14.90
2019-04-27T08:02:40.036Z,14.90
2019-04-27T08:05:10.569Z,15.00
2019-04-27T08:07:42.131Z,15.00
2019-04-27T08:10:12.754Z,15.00
2019-04-27T08:12:43.182Z,15.10
2019-04-27T08:15:14.223Z,15.00
2019-04-27T08:17:44.707Z,15.00
2019-04-27T08:20:15.342Z,15.00
2019-04-27T08:22:45.831Z,15.00
2019-04-27T08:25:16.403Z,15.10
2019-04-27T08:27:49.341Z,15.20
2019-04-27T08:30:24.661Z,15.30
2019-04-27T08:32:56.924Z,15.30
2019-04-27T08:35:29.478Z,15.30
2019-04-27T08:37:59.596Z,15.30
2019-04-27T08:40:37.116Z,15.50
2019-04-27T08:43:09.218Z,15.70
2019-04-27T08:45:40.096Z,16.10
2019-04-27T08:48:10.598Z,17.00
2019-04-27T08:50:44.648Z,18.10
2019-04-27T08:53:15.908Z,19.00
2019-04-27T08:55:46.293Z,19.60
2019-04-27T08:58:21.079Z,19.70
2019-04-27T09:00:49.164Z,19.50
2019-04-27T09:03:20.143Z,19.30
2019-04-27T09:05:50.645Z,18.80
2019-04-27T09:08:22.788Z,18.40
2019-04-27T09:10:55.047Z,18.10
2019-04-27T09:13:27.173Z,17.80
2019-04-27T09:16:00.056Z,17.40
2019-04-27T09:18:32.554Z,17.30
2019-04-27T09:21:04.908Z,17.20
2019-04-27T09:23:36.386Z,17.10
2019-04-27T09:26:06.976Z,16.90
2019-04-27T09:28:38.796Z,16.90
2019-04-27T09:31:09.588Z,16.70
2019-04-27T09:33:40.081Z,16.60
2019-04-27T09:36:10.604Z,16.70
2019-04-27T09:38:41.633Z,16.80
2019-04-27T09:41:12.149Z,16.90
2019-04-27T09:43:49.781Z,16.80
2019-04-27T09:46:20.324Z,16.80
2019-04-27T09:48:50.736Z,16.80
2019-04-27T09:51:21.294Z,16.70
2019-04-27T09:53:52.675Z,16.60
2019-04-27T09:56:23.170Z,16.50
2019-04-27T09:58:57.046Z,16.60
2019-04-27T10:01:26.471Z,16.60
2019-04-27T10:03:58.751Z,16.60
2019-04-27T10:06:30.019Z,16.60
2019-04-27T10:09:02.613Z,16.70
2019-04-27T10:11:33.147Z,16.80
2019-04-27T10:14:03.811Z,16.80
2019-04-27T10:16:34.338Z,16.60
2019-04-27T10:19:04.958Z,16.80
2019-04-27T10:21:36.541Z,16.90
2019-04-27T10:24:07.316Z,16.90
2019-04-27T10:29:17.740Z,16.90
2019-04-27T10:31:48.431Z,17.00
2019-04-27T10:34:21.889Z,16.90
2019-04-27T10:36:52.508Z,16.90
2019-04-27T10:39:27.803Z,16.90
2019-04-27T10:41:58.489Z,16.70
2019-04-27T10:44:29.154Z,16.70
2019-04-27T10:46:59.716Z,16.60
2019-04-27T10:49:30.255Z,16.70
2019-04-27T10:52:01.217Z,16.80
2019-04-27T10:54:32.680Z,16.90
2019-04-27T10:57:03.569Z,17.00
2019-04-27T10:59:35.903Z,17.10
2019-04-27T11:02:06.396Z,17.20
2019-04-27T11:04:46.117Z,17.20
2019-04-27T11:07:18.291Z,17.40
2019-04-27T11:09:48.859Z,17.30
2019-04-27T11:12:19.458Z,17.20
2019-04-27T11:14:50.799Z,17.10
2019-04-27T11:17:21.491Z,17.00
2019-04-27T11:19:51.973Z,17.10
2019-04-27T11:22:22.564Z,17.10
2019-04-27T11:24:53.327Z,17.00
2019-04-27T11:27:23.882Z,17.10
2019-04-27T11:29:56.288Z,17.00
2019-04-27T11:32:26.656Z,16.90
2019-04-27T11:34:59.863Z,16.80
2019-04-27T11:37:32.093Z,16.70
2019-04-27T11:40:04.927Z,16.70
2019-04-27T11:42:35.456Z,16.60
2019-04-27T11:45:08.557Z,16.60
2019-04-27T11:47:39.008Z,16.60
2019-04-27T11:50:10.259Z,16.60
2019-04-27T11:52:40.901Z,16.50
2019-04-27T11:55:13.606Z,16.50
2019-04-27T11:57:46.951Z,16.50
2019-04-27T12:00:20.880Z,16.50
2019-04-27T12:02:51.494Z,16.50
2019-04-27T12:05:22.373Z,16.40
2019-04-27T12:07:52.922Z,16.40
2019-04-27T12:10:23.541Z,16.40
2019-04-27T12:12:54.043Z,16.30
2019-04-27T12:15:26.243Z,16.20
2019-04-27T12:17:57.082Z,16.20
2019-04-27T12:20:27.806Z,16.10
2019-04-27T12:22:58.431Z,16.10
2019-04-27T12:25:29.140Z,16.20
2019-04-27T12:28:01.280Z,16.30
2019-04-27T12:30:33.597Z,16.30
2019-04-27T12:33:04.831Z,16.30
2019-04-27T12:35:37.357Z,16.40
2019-04-27T12:38:16.787Z,16.40
2019-04-27T12:40:51.054Z,16.40
2019-04-27T12:43:21.994Z,16.70
2019-04-27T12:45:52.959Z,16.40
2019-04-27T12:48:24.511Z,16.50
2019-04-27T12:50:56.340Z,16.50
2019-04-27T12:53:32.091Z,16.50
2019-04-27T12:56:14.182Z,16.50
2019-04-27T12:58:47.584Z,16.50
2019-04-27T13:01:20.177Z,16.70
2019-04-27T13:03:51.387Z,16.60
2019-04-27T13:06:23.078Z,16.50
2019-04-27T13:08:53.468Z,16.40
2019-04-27T13:11:24.076Z,16.30
2019-04-27T13:13:57.242Z,16.10
2019-04-27T13:16:30.318Z,16.30
2019-04-27T13:19:01.375Z,16.50
2019-04-27T13:21:31.958Z,16.50
2019-04-27T13:24:06.324Z,16.50
2019-04-27T13:26:36.165Z,16.70
2019-04-27T13:29:07.567Z,16.80
2019-04-27T13:31:38.465Z,16.80
2019-04-27T13:34:09.016Z,16.80
2019-04-27T13:36:39.508Z,16.80
2019-04-27T13:39:10.138Z,16.60
2019-04-27T13:41:41.451Z,16.70
2019-04-27T13:44:11.872Z,16.70
2019-04-27T13:47:00.092Z,16.80
2019-04-27T13:49:38.022Z,16.90
2019-04-27T13:52:10.329Z,17.00
2019-04-27T13:54:40.918Z,17.10
2019-04-27T13:57:13.085Z,17.10
2019-04-27T13:59:43.620Z,17.10
2019-04-27T14:02:16.006Z,17.00
2019-04-27T14:04:46.861Z,17.00
2019-04-27T14:07:17.430Z,16.80
2019-04-27T14:09:48.937Z,16.70
2019-04-27T14:12:21.214Z,16.70
2019-04-27T14:14:52.287Z,16.50
2019-04-27T14:17:22.821Z,16.30
2019-04-27T14:19:53.251Z,16.20
2019-04-27T14:22:23.659Z,16.30
2019-04-27T14:24:54.143Z,16.40
2019-04-27T14:27:26.316Z,16.40
2019-04-27T14:29:57.671Z,16.30
2019-04-27T14:32:29.163Z,16.50
2019-04-27T14:34:59.547Z,16.40
2019-04-27T14:37:30.366Z,16.30
2019-04-27T14:40:00.926Z,16.20
2019-04-27T14:42:31.488Z,16.20
2019-04-27T14:45:02.700Z,16.20
2019-04-27T14:47:38.294Z,16.10
2019-04-27T14:50:09.887Z,16.10
2019-04-27T14:52:40.930Z,16.00
2019-04-27T14:55:12.375Z,16.00
2019-04-27T14:57:43.737Z,16.10
2019-04-27T15:00:16.713Z,16.00
2019-04-27T15:02:48.649Z,16.20
2019-04-27T15:05:19.429Z,15.80
2019-04-27T15:07:49.978Z,15.90
2019-04-27T15:10:21.596Z,15.90
2019-04-27T15:12:52.173Z,15.80
2019-04-27T15:15:22.770Z,15.80
2019-04-27T15:17:57.562Z,15.80
2019-04-27T15:20:39.738Z,15.80
2019-04-27T15:23:10.151Z,15.70
2019-04-27T15:25:45.737Z,15.80
2019-04-27T15:28:17.926Z,15.80
2019-04-27T15:30:59.539Z,15.80
2019-04-27T15:33:53.301Z,15.90
2019-04-27T15:36:22.853Z,15.90
2019-04-27T15:38:55.717Z,15.90
2019-04-27T15:41:28.910Z,15.90
2019-04-27T15:44:06.220Z,15.90
2019-04-27T15:46:39.074Z,15.90
2019-04-27T15:49:11.600Z,16.10
2019-04-27T15:51:43.709Z,15.90
2019-04-27T15:54:15.274Z,15.90
2019-04-27T15:56:45.876Z,15.90
2019-04-27T15:59:18.343Z,15.80
2019-04-27T16:01:49.332Z,15.80
2019-04-27T16:04:21.033Z,15.80
2019-04-27T16:06:58.549Z,15.80
2019-04-27T16:09:28.364Z,15.80
2019-04-27T16:12:10.752Z,15.80
2019-04-27T16:14:40.981Z,15.70
2019-04-27T16:17:11.665Z,15.70
2019-04-27T16:19:46.795Z,15.60
2019-04-27T16:22:14.471Z,15.60
2019-04-27T16:24:45.009Z,15.50
2019-04-27T16:27:15.487Z,15.40
2019-04-27T16:29:45.892Z,15.30
2019-04-27T16:32:16.593Z,15.30
2019-04-27T16:34:48.654Z,15.20
2019-04-27T16:37:22.455Z,15.30
2019-04-27T16:39:53.357Z,15.30
2019-04-27T16:42:24.548Z,15.10
2019-04-27T16:44:55.700Z,15.10
2019-04-27T16:47:28.127Z,15.10
2019-04-27T16:50:00.747Z,15.10
2019-04-27T16:52:34.646Z,15.10
2019-04-27T16:55:06.195Z,15.10
2019-04-27T16:57:39.871Z,15.00
2019-04-27T17:00:13.909Z,15.00
2019-04-27T17:02:44.637Z,14.90
2019-04-27T17:05:15.736Z,15.00
2019-04-27T17:07:46.270Z,14.90
2019-04-27T17:10:25.442Z,14.90
2019-04-27T17:12:51.178Z,14.90
2019-04-27T17:15:42.116Z,14.80
2019-04-27T17:18:30.919Z,14.90
2019-04-27T17:21:15.786Z,14.80
2019-04-27T17:23:34.076Z,14.80
2019-04-27T17:26:20.056Z,14.70
2019-04-27T17:28:39.304Z,14.70
2019-04-27T17:31:12.984Z,14.60
2019-04-27T17:33:50.740Z,14.60
2019-04-27T17:36:21.402Z,14.60
2019-04-27T17:38:52.005Z,14.60
2019-04-27T17:41:22.695Z,14.50
2019-04-27T17:43:53.310Z,14.50
2019-04-27T17:46:24.973Z,14.50
2019-04-27T17:48:55.521Z,14.50
2019-04-27T17:51:26.081Z,14.40
2019-04-27T17:53:58.489Z,14.30
2019-04-27T17:56:35.900Z,14.30
2019-04-27T17:59:01.357Z,14.30
2019-04-27T18:01:32.698Z,14.20
2019-04-27T18:04:05.076Z,14.30
2019-04-27T18:06:35.629Z,14.30
2019-04-27T18:09:10.017Z,14.30
2019-04-27T18:11:40.653Z,14.30
2019-04-27T18:14:14.566Z,14.30
2019-04-27T18:16:43.478Z,14.30
2019-04-27T18:19:18.799Z,14.30
2019-04-27T18:22:03.215Z,14.30
2019-04-27T18:24:44.641Z,14.20
2019-04-27T18:27:23.234Z,14.20
2019-04-27T18:29:55.354Z,14.10
2019-04-27T18:32:28.718Z,14.10
2019-04-27T18:35:00.291Z,14.10
2019-04-27T18:37:31.334Z,14.10
2019-04-27T18:40:01.854Z,14.00
2019-04-27T18:42:32.731Z,14.00
2019-04-27T18:45:06.986Z,14.00
2019-04-27T18:47:40.237Z,13.90
2019-04-27T18:50:17.753Z,13.90
2019-04-27T18:52:53.375Z,13.90
2019-04-27T18:55:23.978Z,13.90
2019-04-27T18:57:55.255Z,13.80
2019-04-27T19:00:27.700Z,13.80
2019-04-27T19:02:59.918Z,13.80
2019-04-27T19:05:39.613Z,13.80
2019-04-27T19:08:04.229Z,13.80
2019-04-27T19:10:34.809Z,13.80
2019-04-27T19:13:05.484Z,13.70
2019-04-27T19:15:36.094Z,13.70
2019-04-27T19:18:08.477Z,13.70
2019-04-27T19:20:39.138Z,13.70
2019-04-27T19:23:11.314Z,13.70
2019-04-27T19:25:50.180Z,13.60
2019-04-27T19:28:39.182Z,13.60
2019-04-27T19:31:18.779Z,13.50
2019-04-27T19:33:52.649Z,13.50
2019-04-27T19:36:23.484Z,13.50
2019-04-27T19:38:54.139Z,13.50
2019-04-27T19:41:25.282Z,13.50
2019-04-27T19:43:57.430Z,13.50
2019-04-27T19:46:30.674Z,13.50
2019-04-27T19:49:00.448Z,13.50
2019-04-27T19:51:31.361Z,13.40
2019-04-27T19:54:03.453Z,13.40
2019-04-27T19:56:34.956Z,13.40
2019-04-27T19:59:08.917Z,13.30
2019-04-27T20:01:44.341Z,13.40
2019-04-27T20:04:23.102Z,13.40
2019-04-27T20:06:55.763Z,13.30
2019-04-27T20:09:36.901Z,13.50
2019-04-27T20:12:10.192Z,13.30
2019-04-27T20:14:56.257Z,13.30
2019-04-27T20:17:37.945Z,13.20
2019-04-27T20:20:14.170Z,13.20
2019-04-27T20:22:47.912Z,13.10
2019-04-27T20:25:18.481Z,13.10
2019-04-27T20:27:50.147Z,13.00
2019-04-27T20:30:22.814Z,13.00
2019-04-27T20:32:54.974Z,13.00
2019-04-27T20:35:25.529Z,12.90
2019-04-27T20:37:55.987Z,12.90
2019-04-27T20:40:26.726Z,12.90
2019-04-27T20:42:57.116Z,12.90
2019-04-27T20:45:28.209Z,12.90
2019-04-27T20:48:01.126Z,12.80
2019-04-27T20:50:32.892Z,12.80
2019-04-27T20:53:05.153Z,12.80
2019-04-27T20:55:35.847Z,12.80
2019-04-27T20:58:06.491Z,12.70
2019-04-27T21:00:37.174Z,12.70
2019-04-27T21:03:12.385Z,12.70
2019-04-27T21:05:58.058Z,12.70
2019-04-27T21:08:31.209Z,12.60
2019-04-27T21:11:02.090Z,12.60
2019-04-27T21:13:32.734Z,12.60
2019-04-27T21:16:03.269Z,12.60
2019-04-27T21:18:33.930Z,12.60
2019-04-27T21:21:06.993Z,12.60
2019-04-27T21:23:37.953Z,12.60
2019-04-27T21:26:08.467Z,12.60
2019-04-27T21:28:41.110Z,12.60
2019-04-27T21:31:12.754Z,12.60
2019-04-27T21:33:43.565Z,12.60
2019-04-27T21:36:14.529Z,12.50
2019-04-27T21:38:45.480Z,12.60
2019-04-27T21:41:16.146Z,12.50
2019-04-27T21:43:51.211Z,12.60
2019-04-27T21:46:22.928Z,12.50
2019-04-27T21:48:55.499Z,12.50
2019-04-27T21:51:27.211Z,12.50
2019-04-27T21:54:02.393Z,12.40
2019-04-27T21:56:33.005Z,12.30
2019-04-27T21:59:04.268Z,12.30
2019-04-27T22:01:35.695Z,12.30
2019-04-27T22:04:06.889Z,12.30
2019-04-27T22:06:38.224Z,12.20
2019-04-27T22:09:12.975Z,12.20
2019-04-27T22:11:44.323Z,12.10
2019-04-27T22:14:14.861Z,12.10
2019-04-27T22:16:45.744Z,12.00
2019-04-27T22:19:16.291Z,11.90
2019-04-27T22:21:46.784Z,12.00
2019-04-27T22:24:18.998Z,12.10
2019-04-27T22:26:51.628Z,12.00
2019-04-27T22:29:22.220Z,12.10
2019-04-27T22:31:52.988Z,12.00
2019-04-27T22:34:24.863Z,12.10
2019-04-27T22:36:55.796Z,12.10
2019-04-27T22:39:37.245Z,12.10
2019-04-27T22:42:18.045Z,12.10
2019-04-27T22:44:58.927Z,12.10
2019-04-27T22:47:31.677Z,12.10
2019-04-27T22:50:02.725Z,12.10
2019-04-27T22:52:33.238Z,12.20
2019-04-27T22:55:04.486Z,12.20
2019-04-27T22:57:41.440Z,12.20
2019-04-27T23:00:14.216Z,12.20
2019-04-27T23:02:46.441Z,12.30
2019-04-27T23:05:17.172Z,12.30
2019-04-27T23:07:48.653Z,12.20
2019-04-27T23:10:21.854Z,12.20
2019-04-27T23:12:51.652Z,12.20
2019-04-27T23:15:23.853Z,12.20
2019-04-27T23:17:55.237Z,12.20
2019-04-27T23:20:25.847Z,12.20
2019-04-27T23:22:58.503Z,12.30
2019-04-27T23:25:29.063Z,12.20
2019-04-27T23:27:59.587Z,12.20
2019-04-27T23:30:31.667Z,12.20
2019-04-27T23:33:02.141Z,12.20
2019-04-27T23:35:32.952Z,12.20
2019-04-27T23:38:14.798Z,12.20
2019-04-27T23:40:35.852Z,12.20
2019-04-27T23:43:06.431Z,12.20
2019-04-27T23:45:36.863Z,12.20
2019-04-27T23:48:07.519Z,12.10
2019-04-27T23:50:40.060Z,12.20
2019-04-27T23:53:14.992Z,12.10
2019-04-27T23:55:45.582Z,12.10
2019-04-27T23:58:16.932Z,12.10
